createdAt,value
2019-04-27T00:00:15.015Z,1.47
2019-04-27T00:02:45.653Z,1.30
2019-04-27T00:05:18.431Z,1.43
2019-04-27T00:07:45.484Z,1.27
2019-04-27T00:10:25.321Z,1.50
2019-04-27T00:12:48.487Z,1.43
2019-04-27T00:15:15.638Z,1.57
2019-04-27T00:17:49.563Z,1.50
2019-04-27T00:20:14.757Z,1.40
2019-04-27T00:22:58.595Z,1.80
2019-04-27T00:25:27.007Z,1.50
2019-04-27T00:27:53.511Z,1.70
2019-04-27T00:30:20.009Z,1.97
2019-04-27T00:32:46.994Z,1.90
2019-04-27T00:35:14.046Z,2.03
2019-04-27T00:37:42.708Z,1.77
2019-04-27T00:40:09.783Z,2.00
2019-04-27T00:42:36.826Z,1.70
2019-04-27T00:45:05.827Z,1.80
2019-04-27T00:47:34.907Z,1.93
2019-04-27T00:50:00.031Z,1.80
2019-04-27T00:52:27.582Z,1.60
2019-04-27T00:54:54.631Z,1.80
2019-04-27T00:57:39.396Z,1.97
2019-04-27T01:00:13.459Z,2.10
2019-04-27T01:02:43.446Z,1.60
2019-04-27T01:05:14.059Z,1.90
2019-04-27T01:07:41.108Z,2.00
2019-04-27T01:10:08.176Z,2.00
2019-04-27T01:12:35.205Z,1.90
2019-04-27T01:15:03.650Z,1.90
2019-04-27T01:17:29.404Z,1.87
2019-04-27T01:19:56.459Z,1.70
2019-04-27T01:22:23.503Z,1.63
2019-04-27T01:24:51.952Z,1.87
2019-04-27T01:27:21.816Z,2.20
2019-04-27T01:29:49.989Z,2.77
2019-04-27T01:32:16.102Z,2.40
2019-04-27T01:34:43.152Z,1.97
2019-04-27T01:37:10.204Z,1.87
2019-04-27T01:39:38.678Z,2.40
2019-04-27T01:42:04.399Z,2.00
2019-04-27T01:44:31.448Z,2.20
2019-04-27T01:46:59.883Z,1.60
2019-04-27T01:49:25.748Z,1.80
2019-04-27T01:51:52.751Z,1.63
2019-04-27T01:54:19.844Z,1.80
2019-04-27T01:56:46.892Z,1.60
2019-04-27T01:59:13.892Z,1.70
2019-04-27T02:01:55.123Z,1.87
2019-04-27T02:04:25.245Z,2.00
2019-04-27T02:06:53.112Z,2.10
2019-04-27T02:09:20.262Z,2.20
2019-04-27T02:11:48.540Z,2.27
2019-04-27T02:14:15.998Z,2.13
2019-04-27T02:16:43.456Z,2.10
2019-04-27T02:19:11.410Z,1.90
2019-04-27T02:21:39.101Z,2.50
2019-04-27T02:24:04.838Z,3.20
2019-04-27T02:26:31.853Z,3.00
2019-04-27T02:29:02.800Z,3.70
2019-04-27T02:31:36.296Z,3.27
2019-04-27T02:34:19.975Z,3.27
2019-04-27T02:37:04.721Z,3.63
2019-04-27T02:39:31.745Z,2.87
2019-04-27T02:42:00.245Z,3.23
2019-04-27T02:44:25.950Z,3.43
2019-04-27T02:46:53.102Z,3.40
2019-04-27T02:49:20.260Z,3.93
2019-04-27T02:51:52.318Z,3.67
2019-04-27T02:54:20.426Z,3.90
2019-04-27T02:56:46.513Z,4.13
2019-04-27T02:59:14.693Z,3.93
2019-04-27T03:01:46.437Z,4.60
2019-04-27T03:04:10.125Z,4.40
2019-04-27T03:06:39.640Z,4.53
2019-04-27T03:09:04.527Z,4.83
2019-04-27T03:11:31.982Z,4.40
2019-04-27T03:14:29.363Z,5.07
2019-04-27T03:16:43.689Z,4.60
2019-04-27T03:19:17.728Z,4.70
2019-04-27T03:21:44.242Z,4.53
2019-04-27T03:24:11.285Z,5.53
2019-04-27T03:26:39.434Z,5.10
2019-04-27T03:29:05.586Z,4.60
2019-04-27T03:31:33.151Z,4.63
2019-04-27T03:34:04.788Z,4.47
2019-04-27T03:36:31.264Z,4.80
2019-04-27T03:38:54.091Z,4.27
2019-04-27T03:41:21.141Z,4.50
2019-04-27T03:43:50.194Z,5.57
2019-04-27T03:46:22.926Z,5.23
2019-04-27T03:48:50.068Z,5.00
2019-04-27T03:51:19.977Z,5.47
2019-04-27T03:54:01.779Z,4.83
2019-04-27T03:56:30.413Z,4.60
2019-04-27T03:58:59.815Z,5.10
2019-04-27T04:01:25.891Z,5.00
2019-04-27T04:03:52.939Z,4.67
2019-04-27T04:06:19.992Z,4.63
2019-04-27T04:08:49.454Z,4.80
2019-04-27T04:11:24.435Z,5.10
2019-04-27T04:13:55.366Z,4.10
2019-04-27T04:16:29.715Z,4.13
2019-04-27T04:18:55.303Z,3.90
2019-04-27T04:21:23.565Z,3.47
2019-04-27T04:23:50.632Z,3.17
2019-04-27T04:26:19.244Z,3.93
2019-04-27T04:28:44.844Z,3.43
2019-04-27T04:31:13.859Z,3.40
2019-04-27T04:33:40.280Z,3.10
2019-04-27T04:36:07.001Z,3.13
2019-04-27T04:38:34.558Z,2.33
2019-04-27T04:41:01.715Z,2.37
2019-04-27T04:43:35.732Z,2.13
2019-04-27T04:46:22.916Z,2.40
2019-04-27T04:48:50.340Z,1.90
2019-04-27T04:51:15.911Z,1.80
2019-04-27T04:53:42.959Z,2.00
2019-04-27T04:56:10.772Z,1.63
2019-04-27T04:58:39.716Z,1.63
2019-04-27T05:01:04.285Z,1.60
2019-04-27T05:03:31.466Z,1.60
2019-04-27T05:05:59.327Z,1.63
2019-04-27T05:08:26.382Z,1.33
2019-04-27T05:10:53.475Z,1.57
2019-04-27T05:13:20.576Z,1.70
2019-04-27T05:15:48.728Z,1.80
2019-04-27T05:18:15.083Z,1.60
2019-04-27T05:20:42.135Z,1.83
2019-04-27T05:23:09.680Z,1.80
2019-04-27T05:25:36.330Z,1.80
2019-04-27T05:28:03.379Z,1.80
2019-04-27T05:30:30.432Z,2.27
2019-04-27T05:32:58.569Z,1.90
2019-04-27T05:35:24.627Z,2.20
2019-04-27T05:37:51.676Z,2.00
2019-04-27T05:40:19.025Z,2.50
2019-04-27T05:42:48.904Z,2.43
2019-04-27T05:45:15.331Z,2.37
2019-04-27T05:47:54.104Z,2.10
2019-04-27T05:50:22.141Z,2.23
2019-04-27T05:52:49.661Z,2.40
2019-04-27T05:55:15.459Z,2.23
2019-04-27T05:57:42.505Z,2.10
2019-04-27T06:00:09.653Z,1.63
2019-04-27T06:02:36.701Z,2.20
2019-04-27T06:05:03.755Z,1.53
2019-04-27T06:07:32.005Z,1.90
2019-04-27T06:09:59.870Z,1.87
2019-04-27T06:12:26.181Z,1.90
2019-04-27T06:14:53.173Z,2.00
2019-04-27T06:17:21.967Z,1.60
2019-04-27T06:19:49.344Z,1.60
2019-04-27T06:22:16.673Z,1.60
2019-04-27T06:24:43.727Z,1.40
2019-04-27T06:27:10.771Z,1.40
2019-04-27T06:29:40.885Z,1.30
2019-04-27T06:32:09.016Z,1.57
2019-04-27T06:34:34.486Z,1.40
2019-04-27T06:37:02.434Z,1.50
2019-04-27T06:39:29.928Z,1.27
2019-04-27T06:42:01.365Z,1.20
2019-04-27T06:44:29.305Z,0.80
2019-04-27T06:46:54.942Z,0.83
2019-04-27T06:49:21.996Z,1.30
2019-04-27T06:51:49.937Z,1.20
2019-04-27T06:54:16.910Z,1.20
2019-04-27T06:56:44.061Z,1.10
2019-04-27T06:59:11.105Z,1.40
2019-04-27T07:01:39.003Z,1.20
2019-04-27T07:04:16.803Z,1.10
2019-04-27T07:06:53.973Z,1.20
2019-04-27T07:09:12.724Z,0.80
2019-04-27T07:11:39.718Z,0.80
2019-04-27T07:14:11.281Z,1.10
2019-04-27T07:16:35.708Z,0.93
2019-04-27T07:19:02.752Z,0.80
2019-04-27T07:21:29.774Z,1.10
2019-04-27T07:23:56.865Z,0.60
2019-04-27T07:26:23.910Z,0.90
2019-04-27T07:28:50.950Z,0.83
2019-04-27T07:31:19.285Z,0.90
2019-04-27T07:33:45.156Z,0.57
2019-04-27T07:36:12.198Z,0.70
2019-04-27T07:38:39.526Z,0.70
2019-04-27T07:41:06.394Z,0.90
2019-04-27T07:43:44.097Z,0.80
2019-04-27T07:46:11.550Z,0.93
2019-04-27T07:48:39.558Z,0.73
2019-04-27T07:51:05.653Z,0.90
2019-04-27T07:53:33.110Z,0.17
2019-04-27T07:56:00.154Z,1.20
2019-04-27T07:58:27.202Z,1.00
2019-04-27T08:00:54.872Z,1.20
2019-04-27T08:03:21.913Z,1.20
2019-04-27T08:05:49.202Z,1.00
2019-04-27T08:08:19.051Z,1.10
2019-04-27T08:10:47.807Z,1.17
2019-04-27T08:13:13.083Z,0.80
2019-04-27T08:15:40.741Z,0.97
2019-04-27T08:18:08.989Z,1.40
2019-04-27T08:20:35.031Z,1.10
2019-04-27T08:23:02.711Z,1.30
2019-04-27T08:25:30.839Z,1.00
2019-04-27T08:28:04.225Z,1.03
2019-04-27T08:30:39.185Z,1.05
2019-04-27T08:33:04.622Z,1.12
2019-04-27T08:35:32.785Z,1.35
2019-04-27T08:37:59.370Z,1.45
2019-04-27T08:40:26.194Z,1.70
2019-04-27T08:42:55.577Z,1.50
2019-04-27T08:45:20.377Z,1.40
2019-04-27T08:47:49.627Z,1.30
2019-04-27T08:50:41.601Z,1.55
2019-04-27T08:53:32.496Z,1.50
2019-04-27T08:55:59.670Z,1.23
2019-04-27T08:58:28.486Z,1.50
2019-04-27T09:00:53.972Z,1.23
2019-04-27T09:03:21.020Z,1.58
2019-04-27T09:05:49.030Z,1.35
2019-04-27T09:08:19.179Z,1.50
2019-04-27T09:10:48.859Z,1.50
2019-04-27T09:13:15.978Z,1.50
2019-04-27T09:15:44.767Z,1.62
2019-04-27T09:18:11.866Z,1.70
2019-04-27T09:21:00.388Z,1.87
2019-04-27T09:23:28.628Z,1.87
2019-04-27T09:25:54.721Z,1.67
2019-04-27T09:28:21.942Z,1.80
2019-04-27T09:30:49.769Z,1.90
2019-04-27T09:33:16.733Z,1.77
2019-04-27T09:35:43.746Z,1.70
2019-04-27T09:38:10.934Z,1.62
2019-04-27T09:40:37.988Z,1.40
2019-04-27T09:43:05.032Z,1.40
2019-04-27T09:45:32.079Z,1.50
2019-04-27T09:47:59.133Z,1.80
2019-04-27T09:50:28.269Z,1.40
2019-04-27T09:52:53.327Z,1.70
2019-04-27T09:55:20.376Z,1.40
2019-04-27T09:57:47.432Z,1.73
2019-04-27T10:00:15.972Z,1.87
2019-04-27T10:02:41.626Z,1.23
2019-04-27T10:05:09.501Z,1.60
2019-04-27T10:07:36.499Z,5.50
2019-04-27T10:10:06.566Z,1.75
2019-04-27T10:12:36.845Z,1.60
2019-04-27T10:15:03.149Z,1.45
2019-04-27T10:17:30.168Z,1.45
2019-04-27T10:19:57.214Z,1.62
2019-04-27T10:22:39.354Z,2.67
2019-04-27T10:25:01.769Z,1.55
2019-04-27T10:27:28.912Z,1.77
2019-04-27T10:29:56.664Z,1.50
2019-04-27T10:32:23.735Z,1.62
2019-04-27T10:34:51.381Z,1.55
2019-04-27T10:37:18.438Z,1.60
2019-04-27T10:39:45.955Z,1.80
2019-04-27T10:42:12.738Z,1.73
2019-04-27T10:44:39.782Z,1.80
2019-04-27T10:47:06.830Z,1.85
2019-04-27T10:49:33.832Z,1.83
2019-04-27T10:52:00.930Z,1.50
2019-04-27T10:54:27.909Z,1.60
2019-04-27T10:56:55.868Z,1.60
2019-04-27T10:59:22.180Z,1.45
2019-04-27T11:01:49.225Z,1.60
2019-04-27T11:04:29.174Z,1.60
2019-04-27T11:07:05.489Z,1.37
2019-04-27T11:09:33.825Z,1.40
2019-04-27T11:12:01.074Z,1.52
2019-04-27T11:14:29.664Z,1.33
2019-04-27T11:16:56.707Z,2.00
2019-04-27T11:19:23.757Z,1.60
2019-04-27T11:21:50.911Z,1.40
2019-04-27T11:24:17.920Z,1.58
2019-04-27T11:26:46.504Z,1.50
2019-04-27T11:29:12.155Z,1.48
2019-04-27T11:31:39.204Z,1.58
2019-04-27T11:34:06.705Z,1.67
2019-04-27T11:36:35.613Z,1.77
2019-04-27T11:39:05.398Z,1.60
2019-04-27T11:41:32.516Z,1.50
2019-04-27T11:44:01.158Z,1.60
2019-04-27T11:46:28.238Z,1.30
2019-04-27T11:48:56.432Z,1.50
2019-04-27T11:51:22.555Z,1.70
2019-04-27T11:53:49.609Z,1.60
2019-04-27T11:56:17.740Z,1.40
2019-04-27T11:58:43.923Z,1.55
2019-04-27T12:01:12.400Z,1.23
2019-04-27T12:06:37.206Z,1.40
2019-04-27T12:09:04.357Z,1.40
2019-04-27T12:11:31.406Z,1.35
2019-04-27T12:13:58.534Z,1.50
2019-04-27T12:16:26.174Z,1.50
2019-04-27T12:18:52.653Z,1.73
2019-04-27T12:21:19.702Z,1.45
2019-04-27T12:23:47.190Z,1.42
2019-04-27T12:26:15.807Z,1.58
2019-04-27T12:28:43.114Z,1.35
2019-04-27T12:31:11.072Z,1.60
2019-04-27T12:33:39.251Z,1.27
2019-04-27T12:36:06.776Z,1.50
2019-04-27T12:38:33.656Z,1.60
2019-04-27T12:41:00.653Z,1.70
2019-04-27T12:43:27.749Z,1.65
2019-04-27T12:45:55.905Z,1.60
2019-04-27T12:48:22.005Z,1.50
2019-04-27T12:50:49.103Z,1.70
2019-04-27T12:53:17.117Z,1.70
2019-04-27T12:55:46.479Z,1.75
2019-04-27T12:58:14.219Z,1.70
2019-04-27T13:00:43.314Z,1.40
2019-04-27T13:03:10.390Z,1.70
2019-04-27T13:05:39.277Z,1.45
2019-04-27T13:08:06.429Z,1.23
2019-04-27T13:10:33.581Z,1.67
2019-04-27T13:13:00.645Z,1.50
2019-04-27T13:15:28.606Z,1.55
2019-04-27T13:17:57.336Z,1.40
2019-04-27T13:20:22.854Z,1.45
2019-04-27T13:22:49.950Z,1.27
2019-04-27T13:25:17.514Z,1.75
2019-04-27T13:27:44.669Z,1.60
2019-04-27T13:30:11.815Z,1.60
2019-04-27T13:32:39.371Z,1.65
2019-04-27T13:35:06.365Z,1.60
2019-04-27T13:37:42.376Z,1.60
2019-04-27T13:40:09.879Z,1.30
2019-04-27T13:42:43.237Z,1.52
2019-04-27T13:45:12.022Z,1.50
2019-04-27T13:47:43.781Z,1.85
2019-04-27T13:50:13.701Z,1.80
2019-04-27T13:52:41.771Z,1.73
2019-04-27T13:55:08.825Z,1.90
2019-04-27T13:57:49.290Z,1.45
2019-04-27T14:00:03.018Z,1.40
2019-04-27T14:02:32.267Z,1.35
2019-04-27T14:04:57.219Z,1.37
2019-04-27T14:07:26.535Z,1.87
2019-04-27T14:09:51.366Z,1.33
2019-04-27T14:12:21.221Z,1.75
2019-04-27T14:14:46.493Z,1.77
2019-04-27T14:17:13.634Z,1.62
2019-04-27T14:19:40.641Z,1.37
2019-04-27T14:22:09.154Z,1.95
2019-04-27T14:24:40.672Z,2.20
2019-04-27T14:27:07.828Z,2.10
2019-04-27T14:29:34.776Z,2.30
2019-04-27T14:32:01.817Z,2.30
2019-04-27T14:34:28.867Z,2.20
2019-04-27T14:36:56.326Z,2.20
2019-04-27T14:39:23.379Z,2.35
2019-04-27T14:41:50.423Z,1.00
2019-04-27T14:44:18.722Z,0.85
2019-04-27T14:46:44.622Z,1.00
2019-04-27T14:49:11.676Z,1.15
2019-04-27T14:51:40.168Z,2.95
2019-04-27T14:54:06.899Z,0.50
2019-04-27T14:56:34.972Z,0.88
2019-04-27T14:59:02.328Z,0.75
2019-04-27T15:01:29.370Z,0.70
2019-04-27T15:03:56.932Z,0.50
2019-04-27T15:06:25.526Z,0.50
2019-04-27T15:08:50.990Z,1.08
2019-04-27T15:11:19.921Z,0.68
2019-04-27T15:13:48.728Z,0.57
2019-04-27T15:16:23.815Z,1.02
2019-04-27T15:18:50.899Z,0.82
2019-04-27T15:21:20.130Z,0.80
2019-04-27T15:23:48.216Z,1.00
2019-04-27T15:26:15.454Z,0.68
2019-04-27T15:28:44.799Z,0.62
2019-04-27T15:31:22.447Z,0.60
2019-04-27T15:33:46.818Z,0.77
2019-04-27T15:36:28.310Z,0.88
2019-04-27T15:38:59.136Z,0.60
2019-04-27T15:41:31.566Z,0.90
2019-04-27T15:43:59.623Z,1.20
2019-04-27T15:46:23.352Z,1.20
2019-04-27T15:48:50.399Z,0.68
2019-04-27T15:51:21.244Z,0.77
2019-04-27T15:53:50.920Z,0.73
2019-04-27T15:56:15.030Z,0.80
2019-04-27T15:58:42.076Z,0.70
2019-04-27T16:01:11.647Z,1.20
2019-04-27T16:03:36.281Z,1.02
2019-04-27T16:06:07.510Z,0.88
2019-04-27T16:08:30.477Z,1.10
2019-04-27T16:10:58.793Z,1.00
2019-04-27T16:13:26.486Z,1.10
2019-04-27T16:15:54.087Z,1.15
2019-04-27T16:18:18.981Z,0.95
2019-04-27T16:20:46.034Z,1.20
2019-04-27T16:23:13.075Z,1.30
2019-04-27T16:25:48.421Z,0.93
2019-04-27T16:28:09.686Z,1.30
2019-04-27T16:30:34.947Z,1.05
2019-04-27T16:33:01.988Z,1.40
2019-04-27T16:35:29.138Z,1.50
2019-04-27T16:37:58.077Z,1.95
2019-04-27T16:40:25.581Z,1.60
2019-04-27T16:42:54.395Z,1.35
2019-04-27T16:45:18.820Z,1.30
2019-04-27T16:47:45.766Z,1.33
2019-04-27T16:50:12.862Z,1.10
2019-04-27T16:52:40.117Z,1.17
2019-04-27T16:55:27.962Z,1.27
2019-04-27T16:57:50.857Z,2.00
2019-04-27T17:00:18.437Z,3.50
2019-04-27T17:02:45.779Z,3.15
2019-04-27T17:05:12.880Z,2.42
2019-04-27T17:07:41.849Z,2.08
2019-04-27T17:10:09.331Z,1.40
2019-04-27T17:12:37.690Z,1.35
2019-04-27T17:15:16.225Z,1.55
2019-04-27T17:17:47.104Z,1.30
2019-04-27T17:20:12.943Z,1.40
2019-04-27T17:22:38.811Z,1.42
2019-04-27T17:25:04.775Z,1.42
2019-04-27T17:27:33.361Z,1.27
2019-04-27T17:30:01.704Z,1.12
2019-04-27T17:32:30.236Z,1.35
2019-04-27T17:34:59.389Z,1.12
2019-04-27T17:37:29.965Z,1.35
2019-04-27T17:39:59.537Z,1.33
2019-04-27T17:42:22.879Z,1.85
2019-04-27T17:44:49.034Z,8.65
2019-04-27T17:47:15.301Z,5.40
2019-04-27T17:49:42.376Z,13.23
2019-04-27T17:52:13.076Z,32.83
2019-04-27T17:54:40.333Z,117.80
2019-04-27T17:57:03.728Z,240.12
2019-04-27T17:59:31.287Z,596.65
2019-04-27T18:02:01.362Z,429.35
2019-04-27T18:04:28.765Z,107.37
2019-04-27T18:07:02.105Z,15.52
2019-04-27T18:09:23.475Z,3.80
2019-04-27T18:11:50.566Z,2.55
2019-04-27T18:14:19.532Z,3.20
2019-04-27T18:16:48.115Z,2.30
2019-04-27T18:19:14.337Z,2.70
2019-04-27T18:21:52.609Z,1.90
2019-04-27T18:24:19.186Z,1.75
2019-04-27T18:27:04.272Z,1.80
2019-04-27T18:29:30.894Z,1.73
2019-04-27T18:31:55.387Z,1.98
2019-04-27T18:34:22.429Z,1.70
2019-04-27T18:36:49.479Z,1.65
2019-04-27T18:39:18.241Z,1.80
2019-04-27T18:41:49.744Z,2.50
2019-04-27T18:44:12.421Z,3.85
2019-04-27T18:46:39.415Z,3.28
2019-04-27T18:49:10.051Z,5.28
2019-04-27T18:51:59.383Z,2.50
2019-04-27T18:54:20.528Z,5.10
2019-04-27T18:56:49.038Z,3.80
2019-04-27T18:59:14.728Z,4.78
2019-04-27T19:01:41.782Z,1.60
2019-04-27T19:04:08.932Z,2.10
2019-04-27T19:06:35.980Z,2.20
2019-04-27T19:09:20.561Z,2.10
2019-04-27T19:11:56.035Z,2.17
2019-04-27T19:14:14.742Z,1.85
2019-04-27T19:16:42.812Z,2.00
2019-04-27T19:19:09.735Z,2.17
2019-04-27T19:21:36.809Z,2.10
2019-04-27T19:24:03.809Z,2.03
2019-04-27T19:26:30.899Z,2.00
2019-04-27T19:28:58.666Z,2.00
2019-04-27T19:31:51.063Z,1.70
2019-04-27T19:34:41.702Z,2.60
2019-04-27T19:37:35.931Z,5.25
2019-04-27T19:40:04.672Z,13.50
2019-04-27T19:42:33.274Z,12.48
2019-04-27T19:45:04.190Z,9.70
2019-04-27T19:47:31.570Z,9.70
2019-04-27T19:50:00.097Z,8.57
2019-04-27T19:52:25.764Z,4.90
2019-04-27T19:54:52.818Z,9.60
2019-04-27T19:57:31.750Z,5.15
2019-04-27T19:59:48.932Z,10.43
2019-04-27T20:02:15.495Z,5.17
2019-04-27T20:04:42.551Z,5.40
2019-04-27T20:07:10.625Z,6.27
2019-04-27T20:09:37.664Z,6.60
2019-04-27T20:12:07.430Z,4.80
2019-04-27T20:14:44.762Z,2.83
2019-04-27T20:17:12.059Z,3.10
2019-04-27T20:19:39.479Z,3.30
2019-04-27T20:22:06.939Z,3.10
2019-04-27T20:24:37.835Z,2.70
2019-04-27T20:27:06.465Z,2.77
2019-04-27T20:29:33.511Z,2.73
2019-04-27T20:32:01.637Z,3.10
2019-04-27T20:34:30.963Z,2.97
2019-04-27T20:36:56.293Z,3.00
2019-04-27T20:39:23.345Z,3.10
2019-04-27T20:41:51.104Z,2.70
2019-04-27T20:44:17.853Z,2.70
2019-04-27T20:46:44.897Z,2.40
2019-04-27T20:49:13.488Z,3.00
2019-04-27T20:51:50.257Z,2.67
2019-04-27T20:54:14.498Z,2.93
2019-04-27T20:56:41.541Z,2.60
2019-04-27T20:59:08.538Z,3.10
2019-04-27T21:01:35.592Z,2.87
2019-04-27T21:04:02.590Z,3.10
2019-04-27T21:06:35.377Z,3.00
2019-04-27T21:09:03.035Z,2.67
2019-04-27T21:11:30.871Z,2.67
2019-04-27T21:13:57.065Z,2.90
2019-04-27T21:16:24.047Z,3.20
2019-04-27T21:18:51.395Z,2.73
2019-04-27T21:21:18.222Z,3.20
2019-04-27T21:23:45.269Z,3.10
2019-04-27T21:26:12.324Z,3.20
2019-04-27T21:28:41.599Z,2.57
2019-04-27T21:31:06.499Z,3.23
2019-04-27T21:33:33.522Z,2.97
2019-04-27T21:36:01.373Z,2.70
2019-04-27T21:38:27.772Z,2.93
2019-04-27T21:40:54.815Z,3.70
2019-04-27T21:43:21.863Z,3.40
2019-04-27T21:45:50.921Z,3.33
2019-04-27T21:48:16.375Z,3.33
2019-04-27T21:50:43.931Z,3.20
2019-04-27T21:53:28.802Z,3.50
2019-04-27T21:56:01.355Z,2.70
2019-04-27T21:58:28.911Z,3.30
2019-04-27T22:00:59.675Z,2.90
2019-04-27T22:03:26.827Z,3.50
2019-04-27T22:05:53.874Z,3.20
2019-04-27T22:08:21.484Z,3.50
2019-04-27T22:10:47.972Z,3.50
2019-04-27T22:13:15.016Z,3.30
2019-04-27T22:15:42.073Z,3.30
2019-04-27T22:18:11.037Z,3.10
2019-04-27T22:20:36.264Z,3.83
2019-04-27T22:23:18.366Z,3.47
2019-04-27T22:25:45.421Z,3.63
2019-04-27T22:28:12.462Z,3.97
2019-04-27T22:30:39.615Z,4.00
2019-04-27T22:33:06.666Z,3.23
2019-04-27T22:35:33.719Z,3.67
2019-04-27T22:38:01.942Z,3.27
2019-04-27T22:40:33.645Z,3.97
2019-04-27T22:43:01.719Z,3.97
2019-04-27T22:45:28.868Z,3.80
2019-04-27T22:47:55.923Z,4.10
2019-04-27T22:50:22.965Z,4.03
2019-04-27T22:52:50.015Z,4.20
2019-04-27T22:55:17.069Z,4.40
2019-04-27T22:57:44.528Z,4.37
2019-04-27T23:00:17.407Z,4.50
2019-04-27T23:02:45.894Z,4.70
2019-04-27T23:05:12.938Z,4.73
2019-04-27T23:07:41.451Z,5.40
2019-04-27T23:10:07.137Z,5.53
2019-04-27T23:12:34.192Z,5.00
2019-04-27T23:15:03.384Z,5.20
2019-04-27T23:17:46.161Z,5.80
2019-04-27T23:20:13.251Z,5.93
2019-04-27T23:22:40.306Z,5.73
2019-04-27T23:25:07.456Z,6.57
2019-04-27T23:27:34.501Z,6.33
2019-04-27T23:30:01.654Z,7.17
2019-04-27T23:32:44.059Z,7.23
2019-04-27T23:35:11.113Z,6.60
2019-04-27T23:37:38.157Z,6.80
2019-04-27T23:40:06.092Z,8.03
2019-04-27T23:42:33.182Z,7.27
2019-04-27T23:45:00.332Z,7.50
2019-04-27T23:47:27.353Z,7.93
2019-04-27T23:49:54.425Z,7.97
2019-04-27T23:52:22.399Z,8.67
2019-04-27T23:54:51.078Z,7.27
2019-04-27T23:57:16.592Z,7.63
2019-04-27T23:59:43.546Z,6.47
